sensor_id;sensor_type;location;lat;lon;timestamp;temperature;humidity
15844;DHT22;50807;52.436;13.346;2024-03-08T00:00:24;7.50;63.00
15844;DHT22;50807;52.436;13.346;2024-03-08T00:00:55;7.50;63.00
15844;DHT22;50807;52.436;13.346;2024-03-08T00:01:25;7.50;63.00
15844;DHT22;50807;52.436;13.346;2024-03-08T00:01:57;7.50;63.00
15844;DHT22;50807;52.436;13.346;2024-03-08T00:02:28;7.50;63.10
15844;DHT22;50807;52.436;13.346;2024-03-08T00:02:59;7.50;63.10
15844;DHT22;50807;52.436;13.346;2024-03-08T00:03:31;7.40;63.10
15844;DHT22;50807;52.436;13.346;2024-03-08T00:04:03;7.50;63.20
15844;DHT22;50807;52.436;13.346;2024-03-08T00:04:34;7.40;63.20
15844;DHT22;50807;52.436;13.346;2024-03-08T00:05:05;7.40;63.20
15844;DHT22;50807;52.436;13.346;2024-03-08T00:05:39;7.40;63.20
15844;DHT22;50807;52.436;13.346;2024-03-08T00:06:10;7.40;63.20
15844;DHT22;50807;52.436;13.346;2024-03-08T00:06:41;7.40;63.20
15844;DHT22;50807;52.436;13.346;2024-03-08T00:07:12;7.40;63.30
15844;DHT22;50807;52.436;13.346;2024-03-08T00:07:43;7.40;63.30
15844;DHT22;50807;52.436;13.346;2024-03-08T00:08:15;7.40;63.40
15844;DHT22;50807;52.436;13.346;2024-03-08T00:08:46;7.40;63.40
15844;DHT22;50807;52.436;13.346;2024-03-08T00:09:16;7.40;63.40
15844;DHT22;50807;52.436;13.346;2024-03-08T00:09:47;7.40;63.40
15844;DHT22;50807;52.436;13.346;2024-03-08T00:10:19;7.40;63.50
15844;DHT22;50807;52.436;13.346;2024-03-08T00:10:51;7.40;63.50
15844;DHT22;50807;52.436;13.346;2024-03-08T00:11:21;7.40;63.50
15844;DHT22;50807;52.436;13.346;2024-03-08T00:11:53;7.40;63.50
15844;DHT22;50807;52.436;13.346;2024-03-08T00:12:25;7.40;63.50
15844;DHT22;50807;52.436;13.346;2024-03-08T00:12:57;7.40;63.50
15844;DHT22;50807;52.436;13.346;2024-03-08T00:13:29;7.40;63.60
15844;DHT22;50807;52.436;13.346;2024-03-08T00:14:00;7.40;63.60
15844;DHT22;50807;52.436;13.346;2024-03-08T00:14:32;7.30;63.60
15844;DHT22;50807;52.436;13.346;2024-03-08T00:15:04;7.30;63.60
15844;DHT22;50807;52.436;13.346;2024-03-08T00:15:36;7.30;63.70
15844;DHT22;50807;52.436;13.346;2024-03-08T00:16:07;7.30;63.70
15844;DHT22;50807;52.436;13.346;2024-03-08T00:16:39;7.30;63.70
15844;DHT22;50807;52.436;13.346;2024-03-08T00:17:14;7.30;63.70
15844;DHT22;50807;52.436;13.346;2024-03-08T00:17:46;7.30;63.80
15844;DHT22;50807;52.436;13.346;2024-03-08T00:18:17;7.30;63.80
15844;DHT22;50807;52.436;13.346;2024-03-08T00:18:49;7.30;63.80
15844;DHT22;50807;52.436;13.346;2024-03-08T00:19:19;7.30;63.80
15844;DHT22;50807;52.436;13.346;2024-03-08T00:19:50;7.30;63.90
15844;DHT22;50807;52.436;13.346;2024-03-08T00:20:21;7.30;63.90
15844;DHT22;50807;52.436;13.346;2024-03-08T00:20:52;7.30;64.60
15844;DHT22;50807;52.436;13.346;2024-03-08T00:21:24;7.30;63.90
15844;DHT22;50807;52.436;13.346;2024-03-08T00:21:54;7.30;64.00
15844;DHT22;50807;52.436;13.346;2024-03-08T00:22:25;7.30;64.10
15844;DHT22;50807;52.436;13.346;2024-03-08T00:22:56;7.30;64.10
15844;DHT22;50807;52.436;13.346;2024-03-08T00:23:28;7.30;64.10
15844;DHT22;50807;52.436;13.346;2024-03-08T00:23:59;7.30;64.10
15844;DHT22;50807;52.436;13.346;2024-03-08T00:24:29;7.20;64.10
15844;DHT22;50807;52.436;13.346;2024-03-08T00:25:01;7.20;64.20
15844;DHT22;50807;52.436;13.346;2024-03-08T00:25:32;7.20;64.10
15844;DHT22;50807;52.436;13.346;2024-03-08T00:26:04;7.20;64.20
15844;DHT22;50807;52.436;13.346;2024-03-08T00:26:35;7.20;64.20
15844;DHT22;50807;52.436;13.346;2024-03-08T00:27:05;7.20;65.00
15844;DHT22;50807;52.436;13.346;2024-03-08T00:27:37;7.20;64.20
15844;DHT22;50807;52.436;13.346;2024-03-08T00:28:09;7.20;64.30
15844;DHT22;50807;52.436;13.346;2024-03-08T00:28:45;7.20;64.30
15844;DHT22;50807;52.436;13.346;2024-03-08T00:29:15;7.20;64.30
15844;DHT22;50807;52.436;13.346;2024-03-08T00:29:46;7.20;64.40
15844;DHT22;50807;52.436;13.346;2024-03-08T00:30:18;7.20;64.40
15844;DHT22;50807;52.436;13.346;2024-03-08T00:30:49;7.20;64.50
15844;DHT22;50807;52.436;13.346;2024-03-08T00:31:20;7.20;64.50
15844;DHT22;50807;52.436;13.346;2024-03-08T00:31:52;7.20;64.50
15844;DHT22;50807;52.436;13.346;2024-03-08T00:32:22;7.20;64.50
15844;DHT22;50807;52.436;13.346;2024-03-08T00:32:55;7.20;64.50
15844;DHT22;50807;52.436;13.346;2024-03-08T00:33:25;7.20;64.60
15844;DHT22;50807;52.436;13.346;2024-03-08T00:33:58;7.20;64.60
15844;DHT22;50807;52.436;13.346;2024-03-08T00:34:28;7.10;64.50
15844;DHT22;50807;52.436;13.346;2024-03-08T00:34:59;7.20;64.60
15844;DHT22;50807;52.436;13.346;2024-03-08T00:35:30;7.20;64.60
15844;DHT22;50807;52.436;13.346;2024-03-08T00:36:02;7.10;64.60
15844;DHT22;50807;52.436;13.346;2024-03-08T00:36:33;7.10;64.60
15844;DHT22;50807;52.436;13.346;2024-03-08T00:37:04;7.10;64.70
15844;DHT22;50807;52.436;13.346;2024-03-08T00:37:35;7.10;64.80
15844;DHT22;50807;52.436;13.346;2024-03-08T00:38:08;7.10;64.80
15844;DHT22;50807;52.436;13.346;2024-03-08T00:38:38;7.10;64.70
15844;DHT22;50807;52.436;13.346;2024-03-08T00:39:09;7.10;64.80
15844;DHT22;50807;52.436;13.346;2024-03-08T00:39:40;7.10;64.80
15844;DHT22;50807;52.436;13.346;2024-03-08T00:40:12;7.10;64.90
15844;DHT22;50807;52.436;13.346;2024-03-08T00:40:43;7.10;64.90
15844;DHT22;50807;52.436;13.346;2024-03-08T00:41:14;7.10;64.90
15844;DHT22;50807;52.436;13.346;2024-03-08T00:41:45;7.10;64.90
15844;DHT22;50807;52.436;13.346;2024-03-08T00:42:17;7.10;65.00
15844;DHT22;50807;52.436;13.346;2024-03-08T00:42:48;7.00;65.00
15844;DHT22;50807;52.436;13.346;2024-03-08T00:43:19;7.10;65.10
15844;DHT22;50807;52.436;13.346;2024-03-08T00:43:51;7.10;65.10
15844;DHT22;50807;52.436;13.346;2024-03-08T00:44:22;7.00;65.00
15844;DHT22;50807;52.436;13.346;2024-03-08T00:44:54;7.00;65.10
15844;DHT22;50807;52.436;13.346;2024-03-08T00:45:25;7.10;65.20
15844;DHT22;50807;52.436;13.346;2024-03-08T00:45:56;7.00;65.10
15844;DHT22;50807;52.436;13.346;2024-03-08T00:46:28;7.00;65.10
15844;DHT22;50807;52.436;13.346;2024-03-08T00:46:59;7.00;65.10
15844;DHT22;50807;52.436;13.346;2024-03-08T00:47:29;7.00;65.10
15844;DHT22;50807;52.436;13.346;2024-03-08T00:48:00;7.00;65.10
15844;DHT22;50807;52.436;13.346;2024-03-08T00:48:32;7.00;65.20
15844;DHT22;50807;52.436;13.346;2024-03-08T00:49:03;7.00;65.20
15844;DHT22;50807;52.436;13.346;2024-03-08T00:49:34;7.00;65.20
15844;DHT22;50807;52.436;13.346;2024-03-08T00:50:05;7.00;65.20
15844;DHT22;50807;52.436;13.346;2024-03-08T00:50:38;7.00;65.30
15844;DHT22;50807;52.436;13.346;2024-03-08T00:51:09;7.00;65.20
15844;DHT22;50807;52.436;13.346;2024-03-08T00:51:40;7.00;65.30
15844;DHT22;50807;52.436;13.346;2024-03-08T00:52:10;7.00;65.30
15844;DHT22;50807;52.436;13.346;2024-03-08T00:52:42;7.00;65.30
15844;DHT22;50807;52.436;13.346;2024-03-08T00:53:13;7.00;65.40
15844;DHT22;50807;52.436;13.346;2024-03-08T00:53:44;6.90;65.30
15844;DHT22;50807;52.436;13.346;2024-03-08T00:54:14;6.90;65.30
15844;DHT22;50807;52.436;13.346;2024-03-08T00:54:46;6.90;65.40
15844;DHT22;50807;52.436;13.346;2024-03-08T00:55:17;6.90;65.40
15844;DHT22;50807;52.436;13.346;2024-03-08T00:55:48;6.90;65.40
15844;DHT22;50807;52.436;13.346;2024-03-08T00:56:20;6.90;65.40
15844;DHT22;50807;52.436;13.346;2024-03-08T00:56:51;6.90;65.50
15844;DHT22;50807;52.436;13.346;2024-03-08T00:57:21;6.90;65.50
15844;DHT22;50807;52.436;13.346;2024-03-08T00:57:52;6.90;65.50
15844;DHT22;50807;52.436;13.346;2024-03-08T00:58:24;6.90;65.50
15844;DHT22;50807;52.436;13.346;2024-03-08T00:58:56;6.90;65.50
15844;DHT22;50807;52.436;13.346;2024-03-08T00:59:27;6.90;65.50
15844;DHT22;50807;52.436;13.346;2024-03-08T00:59:58;6.90;65.60
15844;DHT22;50807;52.436;13.346;2024-03-08T01:00:29;6.90;65.60
15844;DHT22;50807;52.436;13.346;2024-03-08T01:01:00;6.90;65.60
15844;DHT22;50807;52.436;13.346;2024-03-08T01:01:31;6.90;65.60
15844;DHT22;50807;52.436;13.346;2024-03-08T01:02:02;6.90;65.60
15844;DHT22;50807;52.436;13.346;2024-03-08T01:02:34;6.90;65.60
15844;DHT22;50807;52.436;13.346;2024-03-08T01:03:05;6.90;65.70
15844;DHT22;50807;52.436;13.346;2024-03-08T01:03:37;6.90;65.70
15844;DHT22;50807;52.436;13.346;2024-03-08T01:04:07;6.80;65.70
15844;DHT22;50807;52.436;13.346;2024-03-08T01:04:39;6.90;65.80
15844;DHT22;50807;52.436;13.346;2024-03-08T01:05:10;6.90;65.80
15844;DHT22;50807;52.436;13.346;2024-03-08T01:05:40;6.80;65.70
15844;DHT22;50807;52.436;13.346;2024-03-08T01:06:11;6.90;65.80
15844;DHT22;50807;52.436;13.346;2024-03-08T01:06:43;6.80;65.70
15844;DHT22;50807;52.436;13.346;2024-03-08T01:07:16;6.80;65.70
15844;DHT22;50807;52.436;13.346;2024-03-08T01:07:46;6.80;65.80
15844;DHT22;50807;52.436;13.346;2024-03-08T01:08:17;6.80;65.80
15844;DHT22;50807;52.436;13.346;2024-03-08T01:08:49;6.80;65.80
15844;DHT22;50807;52.436;13.346;2024-03-08T01:09:22;6.80;65.80
15844;DHT22;50807;52.436;13.346;2024-03-08T01:09:52;6.80;65.80
15844;DHT22;50807;52.436;13.346;2024-03-08T01:10:23;6.80;65.80
15844;DHT22;50807;52.436;13.346;2024-03-08T01:10:55;6.80;65.90
15844;DHT22;50807;52.436;13.346;2024-03-08T01:11:26;6.80;65.90
15844;DHT22;50807;52.436;13.346;2024-03-08T01:11:58;6.80;66.00
15844;DHT22;50807;52.436;13.346;2024-03-08T01:12:29;6.80;65.90
15844;DHT22;50807;52.436;13.346;2024-03-08T01:13:00;6.80;66.00
15844;DHT22;50807;52.436;13.346;2024-03-08T01:13:31;6.80;65.90
15844;DHT22;50807;52.436;13.346;2024-03-08T01:14:03;6.80;66.00
15844;DHT22;50807;52.436;13.346;2024-03-08T01:14:34;6.80;66.00
15844;DHT22;50807;52.436;13.346;2024-03-08T01:15:06;6.80;66.70
15844;DHT22;50807;52.436;13.346;2024-03-08T01:15:37;6.80;66.00
15844;DHT22;50807;52.436;13.346;2024-03-08T01:16:11;6.80;66.10
15844;DHT22;50807;52.436;13.346;2024-03-08T01:16:42;6.80;66.10
15844;DHT22;50807;52.436;13.346;2024-03-08T01:17:14;6.80;66.00
15844;DHT22;50807;52.436;13.346;2024-03-08T01:17:44;6.80;66.10
15844;DHT22;50807;52.436;13.346;2024-03-08T01:18:15;6.70;66.00
15844;DHT22;50807;52.436;13.346;2024-03-08T01:18:46;6.80;66.20
15844;DHT22;50807;52.436;13.346;2024-03-08T01:19:18;6.80;66.10
15844;DHT22;50807;52.436;13.346;2024-03-08T01:19:49;6.70;66.10
15844;DHT22;50807;52.436;13.346;2024-03-08T01:20:19;6.80;66.20
15844;DHT22;50807;52.436;13.346;2024-03-08T01:20:51;6.80;66.20
15844;DHT22;50807;52.436;13.346;2024-03-08T01:21:22;6.80;66.90
15844;DHT22;50807;52.436;13.346;2024-03-08T01:21:52;6.80;66.20
15844;DHT22;50807;52.436;13.346;2024-03-08T01:22:26;6.70;66.20
15844;DHT22;50807;52.436;13.346;2024-03-08T01:22:58;6.70;66.20
15844;DHT22;50807;52.436;13.346;2024-03-08T01:23:29;6.70;66.30
15844;DHT22;50807;52.436;13.346;2024-03-08T01:24:00;6.70;66.20
15844;DHT22;50807;52.436;13.346;2024-03-08T01:24:30;6.70;66.30
15844;DHT22;50807;52.436;13.346;2024-03-08T01:25:03;6.70;66.30
15844;DHT22;50807;52.436;13.346;2024-03-08T01:25:35;6.70;66.40
15844;DHT22;50807;52.436;13.346;2024-03-08T01:26:06;6.70;66.30
15844;DHT22;50807;52.436;13.346;2024-03-08T01:26:36;6.70;66.40
15844;DHT22;50807;52.436;13.346;2024-03-08T01:27:09;6.70;66.40
15844;DHT22;50807;52.436;13.346;2024-03-08T01:27:39;6.70;66.40
15844;DHT22;50807;52.436;13.346;2024-03-08T01:28:10;6.70;66.50
15844;DHT22;50807;52.436;13.346;2024-03-08T01:28:43;6.70;66.40
15844;DHT22;50807;52.436;13.346;2024-03-08T01:29:15;6.70;66.50
15844;DHT22;50807;52.436;13.346;2024-03-08T01:29:46;6.70;66.50
15844;DHT22;50807;52.436;13.346;2024-03-08T01:30:16;6.60;66.50
15844;DHT22;50807;52.436;13.346;2024-03-08T01:30:48;6.60;66.50
15844;DHT22;50807;52.436;13.346;2024-03-08T01:31:20;6.70;66.60
15844;DHT22;50807;52.436;13.346;2024-03-08T01:31:51;6.60;66.50
15844;DHT22;50807;52.436;13.346;2024-03-08T01:32:22;6.60;66.60
15844;DHT22;50807;52.436;13.346;2024-03-08T01:32:54;6.60;66.50
15844;DHT22;50807;52.436;13.346;2024-03-08T01:33:26;6.70;66.60
15844;DHT22;50807;52.436;13.346;2024-03-08T01:33:58;6.70;66.70
15844;DHT22;50807;52.436;13.346;2024-03-08T01:34:29;6.60;66.60
15844;DHT22;50807;52.436;13.346;2024-03-08T01:35:00;6.70;66.70
15844;DHT22;50807;52.436;13.346;2024-03-08T01:35:32;6.60;66.60
15844;DHT22;50807;52.436;13.346;2024-03-08T01:36:05;6.70;66.70
15844;DHT22;50807;52.436;13.346;2024-03-08T01:36:36;6.60;66.70
15844;DHT22;50807;52.436;13.346;2024-03-08T01:37:07;6.60;66.70
15844;DHT22;50807;52.436;13.346;2024-03-08T01:37:39;6.60;66.80
15844;DHT22;50807;52.436;13.346;2024-03-08T01:38:10;6.60;66.80
15844;DHT22;50807;52.436;13.346;2024-03-08T01:38:42;6.60;66.80
15844;DHT22;50807;52.436;13.346;2024-03-08T01:39:13;6.60;66.80
15844;DHT22;50807;52.436;13.346;2024-03-08T01:39:44;6.60;66.80
15844;DHT22;50807;52.436;13.346;2024-03-08T01:40:15;6.60;66.80
15844;DHT22;50807;52.436;13.346;2024-03-08T01:40:47;6.60;66.80
15844;DHT22;50807;52.436;13.346;2024-03-08T01:41:18;6.60;66.80
15844;DHT22;50807;52.436;13.346;2024-03-08T01:41:50;6.60;66.80
15844;DHT22;50807;52.436;13.346;2024-03-08T01:42:20;6.60;66.80
15844;DHT22;50807;52.436;13.346;2024-03-08T01:42:52;6.60;66.80
15844;DHT22;50807;52.436;13.346;2024-03-08T01:43:26;6.60;67.60
15844;DHT22;50807;52.436;13.346;2024-03-08T01:43:58;6.60;66.90
15844;DHT22;50807;52.436;13.346;2024-03-08T01:44:30;6.60;66.90
15844;DHT22;50807;52.436;13.346;2024-03-08T01:45:01;6.60;66.90
15844;DHT22;50807;52.436;13.346;2024-03-08T01:45:34;6.60;67.00
15844;DHT22;50807;52.436;13.346;2024-03-08T01:46:06;6.50;66.90
15844;DHT22;50807;52.436;13.346;2024-03-08T01:46:39;6.60;67.00
15844;DHT22;50807;52.436;13.346;2024-03-08T01:47:10;6.60;67.00
15844;DHT22;50807;52.436;13.346;2024-03-08T01:47:42;6.50;66.90
15844;DHT22;50807;52.436;13.346;2024-03-08T01:48:14;6.50;67.00
15844;DHT22;50807;52.436;13.346;2024-03-08T01:48:47;6.50;67.00
15844;DHT22;50807;52.436;13.346;2024-03-08T01:49:20;6.50;67.00
15844;DHT22;50807;52.436;13.346;2024-03-08T01:49:54;6.50;67.10
15844;DHT22;50807;52.436;13.346;2024-03-08T01:50:25;6.50;67.00
15844;DHT22;50807;52.436;13.346;2024-03-08T01:50:56;6.50;67.00
15844;DHT22;50807;52.436;13.346;2024-03-08T01:51:28;6.50;67.10
15844;DHT22;50807;52.436;13.346;2024-03-08T01:52:01;6.50;67.10
15844;DHT22;50807;52.436;13.346;2024-03-08T01:52:32;6.50;67.10
15844;DHT22;50807;52.436;13.346;2024-03-08T01:53:04;6.50;67.10
15844;DHT22;50807;52.436;13.346;2024-03-08T01:53:36;6.50;67.10
15844;DHT22;50807;52.436;13.346;2024-03-08T01:54:07;6.50;67.20
15844;DHT22;50807;52.436;13.346;2024-03-08T01:54:40;6.50;67.20
15844;DHT22;50807;52.436;13.346;2024-03-08T01:55:11;6.50;67.20
15844;DHT22;50807;52.436;13.346;2024-03-08T01:55:47;6.50;67.20
15844;DHT22;50807;52.436;13.346;2024-03-08T01:56:19;6.50;67.20
15844;DHT22;50807;52.436;13.346;2024-03-08T01:56:50;6.50;67.20
15844;DHT22;50807;52.436;13.346;2024-03-08T01:57:21;6.50;67.20
15844;DHT22;50807;52.436;13.346;2024-03-08T01:57:53;6.50;67.20
15844;DHT22;50807;52.436;13.346;2024-03-08T01:58:24;6.40;67.20
15844;DHT22;50807;52.436;13.346;2024-03-08T01:58:58;6.40;67.20
15844;DHT22;50807;52.436;13.346;2024-03-08T01:59:31;6.50;67.30
15844;DHT22;50807;52.436;13.346;2024-03-08T02:00:04;6.50;67.20
15844;DHT22;50807;52.436;13.346;2024-03-08T02:00:36;6.40;67.20
15844;DHT22;50807;52.436;13.346;2024-03-08T02:01:11;6.40;67.30
15844;DHT22;50807;52.436;13.346;2024-03-08T02:01:43;6.40;67.30
15844;DHT22;50807;52.436;13.346;2024-03-08T02:02:16;6.40;67.20
15844;DHT22;50807;52.436;13.346;2024-03-08T02:02:49;6.40;67.30
15844;DHT22;50807;52.436;13.346;2024-03-08T02:03:21;6.40;68.00
15844;DHT22;50807;52.436;13.346;2024-03-08T02:03:53;6.40;67.20
15844;DHT22;50807;52.436;13.346;2024-03-08T02:04:24;6.40;67.20
15844;DHT22;50807;52.436;13.346;2024-03-08T02:04:55;6.40;67.30
15844;DHT22;50807;52.436;13.346;2024-03-08T02:05:26;6.40;67.30
15844;DHT22;50807;52.436;13.346;2024-03-08T02:05:58;6.40;67.30
15844;DHT22;50807;52.436;13.346;2024-03-08T02:06:29;6.40;67.30
15844;DHT22;50807;52.436;13.346;2024-03-08T02:07:00;6.40;67.40
15844;DHT22;50807;52.436;13.346;2024-03-08T02:07:30;6.40;67.30
15844;DHT22;50807;52.436;13.346;2024-03-08T02:08:03;6.40;67.40
15844;DHT22;50807;52.436;13.346;2024-03-08T02:08:36;6.40;67.40
15844;DHT22;50807;52.436;13.346;2024-03-08T02:09:07;6.40;67.50
15844;DHT22;50807;52.436;13.346;2024-03-08T02:09:38;6.40;67.40
15844;DHT22;50807;52.436;13.346;2024-03-08T02:10:10;6.40;67.50
15844;DHT22;50807;52.436;13.346;2024-03-08T02:10:44;6.40;67.50
15844;DHT22;50807;52.436;13.346;2024-03-08T02:11:15;6.40;67.60
15844;DHT22;50807;52.436;13.346;2024-03-08T02:11:46;6.30;67.40
15844;DHT22;50807;52.436;13.346;2024-03-08T02:12:18;6.30;67.50
15844;DHT22;50807;52.436;13.346;2024-03-08T02:12:51;6.30;67.50
15844;DHT22;50807;52.436;13.346;2024-03-08T02:13:22;6.30;67.50
15844;DHT22;50807;52.436;13.346;2024-03-08T02:13:53;6.30;67.50
15844;DHT22;50807;52.436;13.346;2024-03-08T02:14:24;6.30;67.50
15844;DHT22;50807;52.436;13.346;2024-03-08T02:14:56;6.30;67.60
15844;DHT22;50807;52.436;13.346;2024-03-08T02:15:50;6.30;67.60
15844;DHT22;50807;52.436;13.346;2024-03-08T02:16:23;6.30;67.70
15844;DHT22;50807;52.436;13.346;2024-03-08T02:16:54;6.30;67.60
15844;DHT22;50807;52.436;13.346;2024-03-08T02:17:28;6.30;67.60
15844;DHT22;50807;52.436;13.346;2024-03-08T02:18:00;6.30;67.50
15844;DHT22;50807;52.436;13.346;2024-03-08T02:18:32;6.30;67.60
15844;DHT22;50807;52.436;13.346;2024-03-08T02:19:05;6.30;67.60
15844;DHT22;50807;52.436;13.346;2024-03-08T02:19:39;6.30;67.60
15844;DHT22;50807;52.436;13.346;2024-03-08T02:20:10;6.30;67.60
15844;DHT22;50807;52.436;13.346;2024-03-08T02:20:45;6.30;67.70
15844;DHT22;50807;52.436;13.346;2024-03-08T02:21:18;6.30;67.60
15844;DHT22;50807;52.436;13.346;2024-03-08T02:21:49;6.30;67.60
15844;DHT22;50807;52.436;13.346;2024-03-08T02:22:19;6.30;67.70
15844;DHT22;50807;52.436;13.346;2024-03-08T02:22:51;6.30;67.70
15844;DHT22;50807;52.436;13.346;2024-03-08T02:23:22;6.30;67.70
15844;DHT22;50807;52.436;13.346;2024-03-08T02:23:55;6.30;67.80
15844;DHT22;50807;52.436;13.346;2024-03-08T02:24:27;6.30;68.50
15844;DHT22;50807;52.436;13.346;2024-03-08T02:24:58;6.30;67.80
15844;DHT22;50807;52.436;13.346;2024-03-08T02:25:31;6.30;67.80
15844;DHT22;50807;52.436;13.346;2024-03-08T02:26:03;6.20;67.80
15844;DHT22;50807;52.436;13.346;2024-03-08T02:26:35;6.20;67.80
15844;DHT22;50807;52.436;13.346;2024-03-08T02:27:06;6.20;67.80
15844;DHT22;50807;52.436;13.346;2024-03-08T02:27:36;6.20;67.80
15844;DHT22;50807;52.436;13.346;2024-03-08T02:28:09;6.20;67.80
15844;DHT22;50807;52.436;13.346;2024-03-08T02:28:41;6.20;67.80
15844;DHT22;50807;52.436;13.346;2024-03-08T02:29:13;6.20;67.80
15844;DHT22;50807;52.436;13.346;2024-03-08T02:29:45;6.20;67.90
15844;DHT22;50807;52.436;13.346;2024-03-08T02:30:18;6.20;67.90
15844;DHT22;50807;52.436;13.346;2024-03-08T02:30:49;6.20;67.90
15844;DHT22;50807;52.436;13.346;2024-03-08T02:31:20;6.20;68.00
15844;DHT22;50807;52.436;13.346;2024-03-08T02:31:52;6.20;68.00
15844;DHT22;50807;52.436;13.346;2024-03-08T02:32:23;6.20;68.00
15844;DHT22;50807;52.436;13.346;2024-03-08T02:32:54;6.20;68.00
15844;DHT22;50807;52.436;13.346;2024-03-08T02:33:26;6.20;68.10
15844;DHT22;50807;52.436;13.346;2024-03-08T02:33:58;6.20;68.10
15844;DHT22;50807;52.436;13.346;2024-03-08T02:34:29;6.20;68.00
15844;DHT22;50807;52.436;13.346;2024-03-08T02:35:03;6.20;68.10
15844;DHT22;50807;52.436;13.346;2024-03-08T02:35:36;6.20;68.10
15844;DHT22;50807;52.436;13.346;2024-03-08T02:36:08;6.20;68.10
15844;DHT22;50807;52.436;13.346;2024-03-08T02:36:39;6.20;68.10
15844;DHT22;50807;52.436;13.346;2024-03-08T02:37:12;6.20;68.20
15844;DHT22;50807;52.436;13.346;2024-03-08T02:37:42;6.10;68.10
15844;DHT22;50807;52.436;13.346;2024-03-08T02:38:14;6.10;68.10
15844;DHT22;50807;52.436;13.346;2024-03-08T02:38:46;6.10;68.20
15844;DHT22;50807;52.436;13.346;2024-03-08T02:39:18;6.20;68.20
15844;DHT22;50807;52.436;13.346;2024-03-08T02:39:50;6.10;68.20
15844;DHT22;50807;52.436;13.346;2024-03-08T02:40:20;6.10;68.20
15844;DHT22;50807;52.436;13.346;2024-03-08T02:40:53;6.10;68.30
15844;DHT22;50807;52.436;13.346;2024-03-08T02:41:25;6.10;68.30
15844;DHT22;50807;52.436;13.346;2024-03-08T02:41:55;6.10;68.30
15844;DHT22;50807;52.436;13.346;2024-03-08T02:42:26;6.10;68.30
15844;DHT22;50807;52.436;13.346;2024-03-08T02:42:58;6.10;68.30
15844;DHT22;50807;52.436;13.346;2024-03-08T02:43:28;6.10;68.30
15844;DHT22;50807;52.436;13.346;2024-03-08T02:43:59;6.10;68.30
15844;DHT22;50807;52.436;13.346;2024-03-08T02:44:30;6.10;68.40
15844;DHT22;50807;52.436;13.346;2024-03-08T02:45:04;6.10;68.40
15844;DHT22;50807;52.436;13.346;2024-03-08T02:45:36;6.10;68.40
15844;DHT22;50807;52.436;13.346;2024-03-08T02:46:06;6.10;68.40
15844;DHT22;50807;52.436;13.346;2024-03-08T02:46:37;6.10;68.40
15844;DHT22;50807;52.436;13.346;2024-03-08T02:47:09;6.10;68.40
15844;DHT22;50807;52.436;13.346;2024-03-08T02:47:40;6.10;68.40
15844;DHT22;50807;52.436;13.346;2024-03-08T02:48:12;6.10;68.40
15844;DHT22;50807;52.436;13.346;2024-03-08T02:48:43;6.10;68.50
15844;DHT22;50807;52.436;13.346;2024-03-08T02:49:15;6.10;68.50
15844;DHT22;50807;52.436;13.346;2024-03-08T02:49:46;6.10;68.50
15844;DHT22;50807;52.436;13.346;2024-03-08T02:50:17;6.00;68.50
15844;DHT22;50807;52.436;13.346;2024-03-08T02:50:49;6.10;68.60
15844;DHT22;50807;52.436;13.346;2024-03-08T02:51:23;6.00;68.50
15844;DHT22;50807;52.436;13.346;2024-03-08T02:51:56;6.00;68.50
15844;DHT22;50807;52.436;13.346;2024-03-08T02:52:27;6.00;68.50
15844;DHT22;50807;52.436;13.346;2024-03-08T02:52:58;6.00;68.50
15844;DHT22;50807;52.436;13.346;2024-03-08T02:53:29;6.00;68.50
15844;DHT22;50807;52.436;13.346;2024-03-08T02:54:00;6.00;68.50
15844;DHT22;50807;52.436;13.346;2024-03-08T02:54:31;6.00;68.50
15844;DHT22;50807;52.436;13.346;2024-03-08T02:55:02;6.00;68.50
15844;DHT22;50807;52.436;13.346;2024-03-08T02:55:36;6.00;68.60
15844;DHT22;50807;52.436;13.346;2024-03-08T02:56:07;6.00;68.70
15844;DHT22;50807;52.436;13.346;2024-03-08T02:56:39;6.00;68.60
15844;DHT22;50807;52.436;13.346;2024-03-08T02:57:12;6.00;68.70
15844;DHT22;50807;52.436;13.346;2024-03-08T02:57:44;6.00;68.70
15844;DHT22;50807;52.436;13.346;2024-03-08T02:58:17;6.00;68.70
15844;DHT22;50807;52.436;13.346;2024-03-08T02:58:48;6.00;68.70
15844;DHT22;50807;52.436;13.346;2024-03-08T02:59:20;6.00;68.70
15844;DHT22;50807;52.436;13.346;2024-03-08T02:59:51;6.00;68.70
15844;DHT22;50807;52.436;13.346;2024-03-08T03:00:23;6.00;68.70
15844;DHT22;50807;52.436;13.346;2024-03-08T03:00:54;6.00;68.70
15844;DHT22;50807;52.436;13.346;2024-03-08T03:01:27;6.00;68.80
15844;DHT22;50807;52.436;13.346;2024-03-08T03:01:58;6.00;68.80
15844;DHT22;50807;52.436;13.346;2024-03-08T03:02:29;6.00;68.80
15844;DHT22;50807;52.436;13.346;2024-03-08T03:03:00;5.90;68.70
15844;DHT22;50807;52.436;13.346;2024-03-08T03:03:33;5.90;68.80
15844;DHT22;50807;52.436;13.346;2024-03-08T03:04:04;5.90;68.80
15844;DHT22;50807;52.436;13.346;2024-03-08T03:04:35;5.90;68.80
15844;DHT22;50807;52.436;13.346;2024-03-08T03:05:07;5.90;68.90
15844;DHT22;50807;52.436;13.346;2024-03-08T03:05:39;5.90;68.90
15844;DHT22;50807;52.436;13.346;2024-03-08T03:06:12;5.90;68.90
15844;DHT22;50807;52.436;13.346;2024-03-08T03:06:44;5.90;68.90
15844;DHT22;50807;52.436;13.346;2024-03-08T03:07:16;5.90;68.90
15844;DHT22;50807;52.436;13.346;2024-03-08T03:07:47;5.90;68.90
15844;DHT22;50807;52.436;13.346;2024-03-08T03:08:18;5.90;68.90
15844;DHT22;50807;52.436;13.346;2024-03-08T03:08:50;5.90;68.90
15844;DHT22;50807;52.436;13.346;2024-03-08T03:09:21;5.90;69.00
15844;DHT22;50807;52.436;13.346;2024-03-08T03:09:57;5.90;69.00
15844;DHT22;50807;52.436;13.346;2024-03-08T03:10:29;5.90;69.00
15844;DHT22;50807;52.436;13.346;2024-03-08T03:11:00;5.90;69.00
15844;DHT22;50807;52.436;13.346;2024-03-08T03:11:30;5.90;69.10
15844;DHT22;50807;52.436;13.346;2024-03-08T03:12:02;5.90;69.10
15844;DHT22;50807;52.436;13.346;2024-03-08T03:12:33;5.90;69.10
15844;DHT22;50807;52.436;13.346;2024-03-08T03:13:04;5.90;69.10
15844;DHT22;50807;52.436;13.346;2024-03-08T03:13:35;5.90;69.20
15844;DHT22;50807;52.436;13.346;2024-03-08T03:14:06;5.90;69.20
15844;DHT22;50807;52.436;13.346;2024-03-08T03:14:37;5.80;69.10
15844;DHT22;50807;52.436;13.346;2024-03-08T03:15:09;5.80;69.10
15844;DHT22;50807;52.436;13.346;2024-03-08T03:15:40;5.80;69.20
15844;DHT22;50807;52.436;13.346;2024-03-08T03:16:17;5.80;69.20
15844;DHT22;50807;52.436;13.346;2024-03-08T03:16:49;5.80;69.30
15844;DHT22;50807;52.436;13.346;2024-03-08T03:17:20;5.80;69.30
15844;DHT22;50807;52.436;13.346;2024-03-08T03:17:51;5.80;69.30
15844;DHT22;50807;52.436;13.346;2024-03-08T03:18:22;5.80;69.30
15844;DHT22;50807;52.436;13.346;2024-03-08T03:18:54;5.80;69.30
15844;DHT22;50807;52.436;13.346;2024-03-08T03:19:26;5.80;69.30
15844;DHT22;50807;52.436;13.346;2024-03-08T03:19:59;5.80;69.30